createdAt,value
2018-09-04T00:01:45.525Z,14.90
2018-09-04T00:04:13.778Z,14.90
2018-09-04T00:06:42.060Z,14.90
2018-09-04T00:09:10.355Z,14.90
2018-09-04T00:11:38.599Z,15.00
2018-09-04T00:14:07.235Z,15.00
2018-09-04T00:16:35.482Z,15.00
2018-09-04T00:19:03.737Z,15.00
2018-09-04T00:21:32.030Z,15.00
2018-09-04T00:24:00.489Z,15.00
2018-09-04T00:26:28.759Z,15.00
2018-09-04T00:28:57.010Z,15.00
2018-09-04T00:31:25.328Z,15.00
2018-09-04T00:33:53.578Z,15.00
2018-09-04T00:36:21.819Z,15.00
2018-09-04T00:38:50.111Z,15.00
2018-09-04T00:41:18.369Z,15.00
2018-09-04T00:43:46.616Z,15.00
2018-09-04T00:46:14.854Z,15.00
2018-09-04T00:48:43.103Z,15.00
2018-09-04T00:51:11.344Z,15.00
2018-09-04T00:53:39.608Z,15.00
2018-09-04T00:56:07.851Z,15.00
2018-09-04T00:58:36.111Z,15.00
2018-09-04T01:01:04.356Z,15.10
2018-09-04T01:03:32.644Z,15.20
2018-09-04T01:06:01.058Z,15.20
2018-09-04T01:08:29.550Z,15.30
2018-09-04T01:10:57.806Z,15.30
2018-09-04T01:13:26.051Z,15.30
2018-09-04T01:15:54.292Z,15.40
2018-09-04T01:18:22.527Z,15.40
2018-09-04T01:20:50.763Z,15.30
2018-09-04T01:23:19.068Z,15.40
2018-09-04T01:25:47.312Z,15.40
2018-09-04T01:28:15.568Z,15.40
2018-09-04T01:30:43.818Z,15.40
2018-09-04T01:33:12.060Z,15.50
2018-09-04T01:35:40.311Z,15.50
2018-09-04T01:38:08.555Z,15.50
2018-09-04T01:40:36.798Z,15.50
2018-09-04T01:43:05.173Z,15.50
2018-09-04T01:45:33.416Z,15.50
2018-09-04T01:48:01.660Z,15.50
2018-09-04T01:50:29.920Z,15.50
2018-09-04T01:52:58.211Z,15.50
2018-09-04T01:55:26.482Z,15.50
2018-09-04T01:57:54.734Z,15.60
2018-09-04T02:00:22.995Z,15.60
2018-09-04T02:02:51.242Z,15.60
2018-09-04T02:05:19.588Z,15.60
2018-09-04T02:07:47.829Z,15.70
2018-09-04T02:10:16.068Z,15.70
2018-09-04T02:12:44.505Z,15.70
2018-09-04T02:15:12.746Z,15.70
2018-09-04T02:17:41.014Z,15.70
2018-09-04T02:20:09.259Z,15.70
2018-09-04T02:22:37.734Z,15.80
2018-09-04T02:25:06.716Z,15.80
2018-09-04T02:27:35.120Z,15.80
2018-09-04T02:30:03.369Z,15.80
2018-09-04T02:32:31.615Z,15.80
2018-09-04T02:34:59.913Z,15.80
2018-09-04T02:37:28.123Z,15.80
2018-09-04T02:39:56.362Z,15.80
2018-09-04T02:42:24.617Z,15.80
2018-09-04T02:44:52.854Z,15.80
2018-09-04T02:47:21.111Z,15.80
2018-09-04T02:49:49.450Z,15.80
2018-09-04T02:52:17.711Z,15.80
2018-09-04T02:54:45.970Z,15.80
2018-09-04T02:57:14.216Z,15.80
2018-09-04T02:59:42.460Z,15.80
2018-09-04T03:02:10.705Z,15.80
2018-09-04T03:04:38.966Z,15.90
2018-09-04T03:07:07.257Z,15.90
2018-09-04T03:09:35.619Z,15.90
2018-09-04T03:12:03.904Z,15.90
2018-09-04T03:14:32.194Z,15.90
2018-09-04T03:17:00.488Z,15.90
2018-09-04T03:19:28.779Z,15.90
2018-09-04T03:21:57.066Z,15.90
2018-09-04T03:24:25.367Z,15.90
2018-09-04T03:26:53.647Z,15.90
2018-09-04T03:29:21.945Z,15.90
2018-09-04T03:31:50.308Z,15.90
2018-09-04T03:34:18.698Z,15.90
2018-09-04T03:36:46.986Z,15.90
2018-09-04T03:39:15.414Z,15.90
2018-09-04T03:41:44.030Z,15.90
2018-09-04T03:44:12.437Z,15.90
2018-09-04T03:46:40.700Z,15.90
2018-09-04T03:49:09.030Z,16.00
2018-09-04T03:51:37.332Z,15.90
2018-09-04T03:54:05.852Z,15.90
2018-09-04T03:56:34.135Z,16.00
2018-09-04T03:59:02.400Z,16.00
2018-09-04T04:01:30.773Z,15.90
2018-09-04T04:03:59.043Z,15.90
2018-09-04T04:06:27.302Z,15.90
2018-09-04T04:08:55.591Z,15.90
2018-09-04T04:11:23.868Z,15.90
2018-09-04T04:13:52.132Z,15.90
2018-09-04T04:16:20.599Z,15.80
2018-09-04T04:18:48.922Z,15.80
2018-09-04T04:21:17.199Z,15.80
2018-09-04T04:23:45.532Z,15.80
2018-09-04T04:26:13.773Z,15.70
2018-09-04T04:28:42.196Z,15.70
2018-09-04T04:31:10.474Z,15.70
2018-09-04T04:33:38.715Z,15.70
2018-09-04T04:36:07.026Z,15.80
2018-09-04T04:38:35.308Z,15.70
2018-09-04T04:41:03.579Z,15.80
2018-09-04T04:43:31.878Z,15.80
2018-09-04T04:46:00.255Z,15.70
2018-09-04T04:48:28.657Z,15.70
2018-09-04T04:50:56.942Z,15.70
2018-09-04T04:53:25.218Z,15.70
2018-09-04T04:55:53.497Z,15.70
2018-09-04T04:58:21.778Z,15.60
2018-09-04T05:00:50.092Z,15.60
2018-09-04T05:03:18.380Z,15.60
2018-09-04T05:05:46.665Z,15.60
2018-09-04T05:08:14.926Z,15.60
2018-09-04T05:10:43.266Z,15.60
2018-09-04T05:13:11.546Z,15.60
2018-09-04T05:15:39.817Z,15.60
2018-09-04T05:18:08.079Z,15.60
2018-09-04T05:20:36.376Z,15.70
2018-09-04T05:23:04.646Z,15.70
2018-09-04T05:25:32.912Z,15.80
2018-09-04T05:28:01.193Z,15.80
2018-09-04T05:30:29.483Z,15.80
2018-09-04T05:33:03.239Z,15.90
2018-09-04T05:35:39.160Z,16.00
2018-09-04T05:38:07.451Z,16.00
2018-09-04T05:40:35.726Z,16.10
2018-09-04T05:43:05.988Z,16.20
2018-09-04T05:45:34.788Z,16.30
2018-09-04T05:48:05.128Z,16.30
2018-09-04T05:50:33.419Z,16.50
2018-09-04T05:53:01.698Z,16.60
2018-09-04T05:55:29.968Z,16.70
2018-09-04T05:57:58.307Z,16.80
2018-09-04T06:00:28.931Z,16.90
2018-09-04T06:02:57.232Z,17.00
2018-09-04T06:05:25.522Z,17.00
2018-09-04T06:07:54.220Z,17.20
2018-09-04T06:10:22.549Z,17.20
2018-09-04T06:12:50.904Z,17.40
2018-09-04T06:15:19.345Z,17.40
2018-09-04T06:17:47.632Z,17.50
2018-09-04T06:20:16.762Z,17.70
2018-09-04T06:22:45.512Z,17.80
2018-09-04T06:25:13.829Z,17.80
2018-09-04T06:27:42.126Z,17.90
2018-09-04T06:30:10.534Z,17.90
2018-09-04T06:32:38.860Z,17.90
2018-09-04T06:35:07.347Z,18.00
2018-09-04T06:37:37.605Z,18.00
2018-09-04T06:40:06.150Z,18.00
2018-09-04T06:42:34.647Z,18.00
2018-09-04T06:45:03.045Z,17.90
2018-09-04T06:47:31.339Z,17.90
2018-09-04T06:49:59.654Z,17.90
2018-09-04T06:52:27.936Z,17.90
2018-09-04T06:54:56.224Z,18.00
2018-09-04T06:57:24.596Z,18.10
2018-09-04T06:59:52.975Z,18.30
2018-09-04T07:02:21.351Z,18.40
2018-09-04T07:04:49.643Z,18.40
2018-09-04T07:07:18.722Z,18.50
2018-09-04T07:09:47.071Z,18.40
2018-09-04T07:12:15.736Z,18.40
2018-09-04T07:14:44.187Z,18.50
2018-09-04T07:17:12.592Z,18.70
2018-09-04T07:19:41.474Z,18.80
2018-09-04T07:22:09.773Z,18.70
2018-09-04T07:24:38.208Z,18.70
2018-09-04T07:27:07.974Z,18.60
2018-09-04T07:29:36.644Z,18.70
2018-09-04T07:32:04.985Z,18.90
2018-09-04T07:34:33.327Z,19.10
2018-09-04T07:37:01.974Z,19.50
2018-09-04T07:39:30.392Z,19.60
2018-09-04T07:41:58.867Z,19.80
2018-09-04T07:44:27.115Z,20.00
2018-09-04T07:46:55.411Z,20.50
2018-09-04T07:49:23.750Z,21.10
2018-09-04T07:51:52.168Z,21.40
2018-09-04T07:54:20.859Z,21.60
2018-09-04T07:56:49.875Z,21.50
2018-09-04T07:59:18.930Z,21.00
2018-09-04T08:01:47.225Z,20.90
2018-09-04T08:04:15.524Z,20.90
2018-09-04T08:06:44.088Z,20.80
2018-09-04T08:09:12.395Z,20.60
2018-09-04T08:11:40.699Z,20.50
2018-09-04T08:14:09.077Z,20.50
2018-09-04T08:16:37.561Z,20.40
2018-09-04T08:19:05.979Z,20.50
2018-09-04T08:21:35.979Z,20.60
2018-09-04T08:24:05.924Z,20.50
2018-09-04T08:26:34.290Z,20.80
2018-09-04T08:29:02.577Z,20.80
2018-09-04T08:31:30.874Z,20.70
2018-09-04T08:33:59.205Z,20.90
2018-09-04T08:36:27.482Z,21.10
2018-09-04T08:38:55.760Z,20.90
2018-09-04T08:41:24.050Z,20.90
2018-09-04T08:43:52.426Z,21.10
2018-09-04T08:46:20.703Z,21.10
2018-09-04T08:48:48.994Z,21.00
2018-09-04T08:51:17.296Z,21.10
2018-09-04T08:53:45.545Z,21.10
2018-09-04T08:56:14.012Z,21.30
2018-09-04T08:58:42.304Z,21.40
2018-09-04T09:01:10.923Z,21.40
2018-09-04T09:03:39.269Z,21.30
2018-09-04T09:06:07.621Z,21.20
2018-09-04T09:08:35.917Z,21.30
2018-09-04T09:11:04.178Z,21.20
2018-09-04T09:13:32.423Z,21.40
2018-09-04T09:16:00.723Z,21.60
2018-09-04T09:18:28.966Z,21.80
2018-09-04T09:20:57.207Z,22.10
2018-09-04T09:23:26.065Z,22.20
2018-09-04T09:25:54.410Z,22.70
2018-09-04T09:28:22.706Z,23.00
2018-09-04T09:30:50.960Z,23.50
2018-09-04T09:33:19.207Z,24.00
2018-09-04T09:35:47.467Z,24.40
2018-09-04T09:38:15.715Z,24.20
2018-09-04T09:40:51.398Z,24.50
2018-09-04T09:43:30.541Z,24.90
2018-09-04T09:45:59.355Z,25.00
2018-09-04T09:48:31.922Z,26.60
2018-09-04T09:51:00.255Z,29.00
2018-09-04T09:53:29.761Z,30.70
2018-09-04T09:55:57.958Z,32.90
2018-09-04T09:58:26.532Z,34.30
2018-09-04T10:00:59.122Z,35.10
2018-09-04T10:03:32.859Z,35.40
2018-09-04T10:06:01.109Z,35.90
2018-09-04T10:08:29.406Z,34.60
2018-09-04T10:10:57.642Z,34.90
2018-09-04T10:13:25.873Z,35.90
2018-09-04T10:15:54.132Z,36.20
2018-09-04T10:18:22.861Z,37.30
2018-09-04T10:20:51.114Z,35.90
2018-09-04T10:23:19.366Z,36.20
2018-09-04T10:25:47.638Z,35.10
2018-09-04T10:28:15.889Z,34.90
2018-09-04T10:30:44.191Z,34.70
2018-09-04T10:33:12.440Z,35.20
2018-09-04T10:35:40.749Z,35.90
2018-09-04T10:38:08.989Z,36.10
2018-09-04T10:40:40.969Z,37.10
2018-09-04T10:43:09.213Z,37.20
2018-09-04T10:45:42.974Z,37.00
2018-09-04T10:48:15.353Z,37.00
2018-09-04T10:50:43.594Z,37.70
2018-09-04T10:53:11.835Z,37.60
2018-09-04T10:55:40.109Z,37.00
2018-09-04T10:58:08.361Z,37.40
2018-09-04T11:00:36.591Z,37.50
2018-09-04T11:03:04.872Z,37.90
2018-09-04T11:05:33.306Z,38.00
2018-09-04T11:08:01.558Z,37.00
2018-09-04T11:10:29.807Z,37.80
2018-09-04T11:12:58.105Z,37.40
2018-09-04T11:15:26.343Z,37.20
2018-09-04T11:17:54.591Z,37.20
2018-09-04T11:20:22.820Z,36.60
2018-09-04T11:22:51.068Z,37.00
2018-09-04T11:25:19.351Z,36.40
2018-09-04T11:27:47.636Z,35.30
2018-09-04T11:30:15.931Z,35.10
2018-09-04T11:32:44.214Z,35.20
2018-09-04T11:35:12.494Z,35.70
2018-09-04T11:37:40.875Z,34.50
2018-09-04T11:40:22.240Z,33.70
2018-09-04T11:42:50.495Z,34.20
2018-09-04T11:45:18.751Z,33.10
2018-09-04T11:47:48.134Z,33.30
2018-09-04T11:50:16.575Z,33.80
2018-09-04T11:52:44.842Z,34.40
2018-09-04T11:55:13.085Z,34.90
2018-09-04T11:57:41.850Z,34.80
2018-09-04T12:00:15.507Z,34.50
2018-09-04T12:02:44.014Z,34.60
2018-09-04T12:05:12.275Z,34.60
2018-09-04T12:07:40.528Z,34.10
2018-09-04T12:10:08.871Z,33.80
2018-09-04T12:12:37.253Z,33.10
2018-09-04T12:15:05.636Z,32.80
2018-09-04T12:17:33.897Z,32.80
2018-09-04T12:20:07.779Z,32.10
2018-09-04T12:22:36.019Z,31.80
2018-09-04T12:25:04.642Z,31.60
2018-09-04T12:27:32.941Z,32.20
2018-09-04T12:30:01.204Z,32.10
2018-09-04T12:32:29.655Z,32.20
2018-09-04T12:34:57.911Z,32.00
2018-09-04T12:37:26.168Z,31.40
2018-09-04T12:39:57.926Z,30.20
2018-09-04T12:42:28.050Z,30.20
2018-09-04T12:44:57.966Z,30.10
2018-09-04T12:47:26.204Z,30.70
2018-09-04T12:49:54.459Z,31.00
2018-09-04T12:52:22.715Z,31.40
2018-09-04T12:54:51.145Z,31.80
2018-09-04T12:57:19.406Z,31.30
2018-09-04T12:59:47.878Z,31.30
2018-09-04T13:02:16.295Z,31.10
2018-09-04T13:04:45.106Z,31.60
2018-09-04T13:07:13.379Z,31.70
2018-09-04T13:09:41.690Z,31.50
2018-09-04T13:12:10.053Z,32.00
2018-09-04T13:14:38.351Z,32.00
2018-09-04T13:17:07.054Z,32.50
2018-09-04T13:19:36.736Z,32.20
2018-09-04T13:22:05.198Z,32.10
2018-09-04T13:24:33.731Z,32.00
2018-09-04T13:27:02.065Z,31.80
2018-09-04T13:29:31.424Z,31.50
2018-09-04T13:31:59.956Z,31.30
2018-09-04T13:34:28.243Z,30.50
2018-09-04T13:36:56.517Z,29.60
2018-09-04T13:39:24.782Z,28.80
2018-09-04T13:41:53.111Z,28.50
2018-09-04T13:44:21.386Z,28.00
2018-09-04T13:46:49.690Z,28.20
2018-09-04T13:49:18.009Z,28.60
2018-09-04T13:51:46.398Z,29.60
2018-09-04T13:54:14.690Z,30.10
2018-09-04T13:56:42.972Z,29.50
2018-09-04T13:59:11.222Z,29.70
2018-09-04T14:01:39.466Z,29.20
2018-09-04T14:04:07.710Z,28.90
2018-09-04T14:06:35.974Z,28.70
2018-09-04T14:09:05.236Z,28.60
2018-09-04T14:11:33.627Z,28.60
2018-09-04T14:14:01.985Z,28.30
2018-09-04T14:16:30.164Z,28.20
2018-09-04T14:18:58.414Z,28.00
2018-09-04T14:21:26.941Z,27.90
2018-09-04T14:23:55.187Z,27.70
2018-09-04T14:26:23.424Z,27.40
2018-09-04T14:29:06.429Z,27.30
2018-09-04T14:31:19.942Z,27.10
2018-09-04T14:33:48.195Z,26.10
2018-09-04T14:36:16.467Z,25.40
2018-09-04T14:38:44.694Z,24.10
2018-09-04T14:41:12.938Z,23.10
2018-09-04T14:43:41.181Z,22.30
2018-09-04T14:46:09.466Z,21.50
2018-09-04T14:48:38.006Z,21.20
2018-09-04T14:51:06.264Z,20.90
2018-09-04T14:53:34.537Z,20.70
2018-09-04T14:56:02.792Z,20.80
2018-09-04T14:58:31.055Z,20.70
2018-09-04T15:00:59.314Z,20.70
2018-09-04T15:03:27.546Z,20.70
2018-09-04T15:05:55.801Z,20.70
2018-09-04T15:08:24.118Z,20.70
2018-09-04T15:10:52.447Z,20.70
2018-09-04T15:13:20.720Z,20.70
2018-09-04T15:15:49.016Z,20.70
2018-09-04T15:18:17.319Z,20.60
2018-09-04T15:20:45.574Z,20.50
2018-09-04T15:23:13.816Z,20.40
2018-09-04T15:25:42.092Z,20.30
2018-09-04T15:28:10.335Z,20.20
2018-09-04T15:30:38.783Z,20.20
2018-09-04T15:33:07.133Z,20.10
2018-09-04T15:35:35.494Z,20.00
2018-09-04T15:38:04.064Z,20.00
2018-09-04T15:40:32.302Z,20.00
2018-09-04T15:43:00.548Z,20.00
2018-09-04T15:45:28.870Z,19.80
2018-09-04T15:47:57.115Z,19.80
2018-09-04T15:50:25.367Z,19.70
2018-09-04T15:52:53.619Z,19.70
2018-09-04T15:55:21.849Z,19.60
2018-09-04T15:57:50.099Z,19.50
2018-09-04T16:00:18.365Z,19.40
2018-09-04T16:02:46.606Z,19.40
2018-09-04T16:05:14.903Z,19.50
2018-09-04T16:07:43.314Z,19.40
2018-09-04T16:10:11.712Z,19.30
2018-09-04T16:12:39.870Z,19.30
2018-09-04T16:15:08.126Z,19.30
2018-09-04T16:17:36.413Z,19.20
2018-09-04T16:20:04.730Z,19.20
2018-09-04T16:22:33.030Z,19.10
2018-09-04T16:25:01.275Z,19.10
2018-09-04T16:27:29.566Z,18.90
2018-09-04T16:29:57.822Z,19.00
2018-09-04T16:32:26.111Z,18.90
2018-09-04T16:34:54.446Z,18.90
2018-09-04T16:37:22.665Z,18.90
2018-09-04T16:39:50.919Z,18.90
2018-09-04T16:42:19.271Z,18.80
2018-09-04T16:44:47.539Z,18.80
2018-09-04T16:47:15.792Z,18.60
2018-09-04T16:49:44.058Z,18.50
2018-09-04T16:52:12.316Z,18.50
2018-09-04T16:54:40.618Z,18.50
2018-09-04T16:57:08.883Z,18.40
2018-09-04T16:59:37.194Z,18.40
2018-09-04T17:02:05.728Z,18.30
2018-09-04T17:04:34.061Z,18.30
2018-09-04T17:07:02.301Z,18.20
2018-09-04T17:09:30.619Z,18.10
2018-09-04T17:11:58.911Z,18.00
2018-09-04T17:14:27.194Z,18.00
2018-09-04T17:16:55.456Z,18.00
2018-09-04T17:19:23.708Z,17.90
2018-09-04T17:21:52.234Z,17.90
2018-09-04T17:24:20.548Z,17.80
2018-09-04T17:26:48.789Z,17.80
2018-09-04T17:29:17.135Z,17.70
2018-09-04T17:31:45.402Z,17.70
2018-09-04T17:34:13.819Z,17.70
2018-09-04T17:36:42.070Z,17.70
2018-09-04T17:39:10.429Z,17.70
2018-09-04T17:41:38.691Z,17.60
2018-09-04T17:44:07.252Z,17.60
2018-09-04T17:46:35.563Z,17.60
2018-09-04T17:49:05.140Z,17.60
2018-09-04T17:51:33.512Z,17.50
2018-09-04T17:54:02.031Z,17.50
2018-09-04T17:56:30.336Z,17.40
2018-09-04T17:58:58.681Z,17.40
2018-09-04T18:01:26.952Z,17.40
2018-09-04T18:03:55.228Z,17.30
2018-09-04T18:06:23.492Z,17.20
2018-09-04T18:08:51.787Z,17.00
2018-09-04T18:11:20.136Z,16.90
2018-09-04T18:13:48.497Z,16.80
2018-09-04T18:16:16.811Z,16.80
2018-09-04T18:18:45.166Z,16.80
2018-09-04T18:21:13.442Z,16.80
2018-09-04T18:23:41.863Z,16.80
2018-09-04T18:26:10.127Z,16.90
2018-09-04T18:28:38.381Z,16.90
2018-09-04T18:31:06.650Z,16.90
2018-09-04T18:33:35.031Z,16.80
2018-09-04T18:36:03.390Z,16.80
2018-09-04T18:38:31.639Z,16.80
2018-09-04T18:41:00.028Z,16.80
2018-09-04T18:43:28.273Z,16.80
2018-09-04T18:45:57.421Z,16.80
2018-09-04T18:48:26.229Z,16.80
2018-09-04T18:50:54.558Z,16.70
2018-09-04T18:53:22.803Z,16.60
2018-09-04T18:55:51.064Z,16.50
2018-09-04T18:58:19.326Z,16.50
2018-09-04T19:00:47.636Z,16.40
2018-09-04T19:03:15.903Z,16.40
2018-09-04T19:05:44.228Z,16.30
2018-09-04T19:08:12.478Z,16.40
2018-09-04T19:10:40.790Z,16.30
2018-09-04T19:13:09.064Z,16.40
2018-09-04T19:15:37.334Z,16.40
2018-09-04T19:18:05.583Z,16.40
2018-09-04T19:20:33.951Z,16.40
2018-09-04T19:23:02.251Z,16.40
2018-09-04T19:25:30.542Z,16.40
2018-09-04T19:27:58.807Z,16.40
2018-09-04T19:30:27.069Z,16.40
2018-09-04T19:32:55.342Z,16.40
2018-09-04T19:35:23.783Z,16.40
2018-09-04T19:37:52.105Z,16.40
2018-09-04T19:40:20.364Z,16.20
2018-09-04T19:42:48.645Z,16.20
2018-09-04T19:45:16.943Z,16.10
2018-09-04T19:47:45.246Z,16.20
2018-09-04T19:50:13.591Z,16.20
2018-09-04T19:52:41.921Z,16.10
2018-09-04T19:55:11.232Z,16.00
2018-09-04T19:57:39.490Z,16.00
2018-09-04T20:00:08.525Z,16.00
2018-09-04T20:02:36.828Z,16.00
2018-09-04T20:05:06.025Z,16.00
2018-09-04T20:07:34.302Z,16.00
2018-09-04T20:10:02.551Z,16.00
2018-09-04T20:12:30.811Z,15.90
2018-09-04T20:14:59.088Z,15.90
2018-09-04T20:17:27.360Z,15.90
2018-09-04T20:19:56.382Z,15.90
2018-09-04T20:22:24.665Z,15.90
2018-09-04T20:24:52.922Z,15.90
2018-09-04T20:27:21.231Z,15.80
2018-09-04T20:29:49.484Z,15.80
2018-09-04T20:32:17.748Z,15.80
2018-09-04T20:34:45.994Z,15.70
2018-09-04T20:37:45.435Z,15.70
2018-09-04T20:40:13.715Z,15.70
2018-09-04T20:42:42.003Z,15.60
2018-09-04T20:45:10.254Z,15.60
2018-09-04T20:47:38.504Z,15.60
2018-09-04T20:50:06.779Z,15.60
2018-09-04T20:52:35.030Z,15.50
2018-09-04T20:55:03.326Z,15.40
2018-09-04T20:57:38.654Z,15.30
2018-09-04T21:00:19.874Z,15.20
2018-09-04T21:02:59.844Z,15.20
2018-09-04T21:05:39.536Z,15.20
2018-09-04T21:08:24.501Z,15.20
2018-09-04T21:10:53.486Z,15.20
2018-09-04T21:13:21.753Z,15.30
2018-09-04T21:15:50.002Z,15.20
2018-09-04T21:18:18.250Z,15.20
2018-09-04T21:20:46.498Z,15.20
2018-09-04T21:23:14.761Z,15.20
2018-09-04T21:25:43.003Z,15.10
2018-09-04T21:28:11.243Z,15.10
2018-09-04T21:30:39.482Z,15.10
2018-09-04T21:33:07.770Z,15.20
2018-09-04T21:35:36.027Z,15.10
2018-09-04T21:38:04.386Z,15.10
2018-09-04T21:40:32.641Z,15.00
2018-09-04T21:43:00.882Z,15.00
2018-09-04T21:45:29.131Z,15.10
2018-09-04T21:47:57.409Z,15.10
2018-09-04T21:50:25.668Z,15.00
2018-09-04T21:52:53.911Z,14.90
2018-09-04T21:55:22.160Z,14.90
2018-09-04T21:57:50.395Z,14.90
2018-09-04T22:00:24.044Z,14.80
2018-09-04T22:02:52.291Z,14.80
2018-09-04T22:05:20.630Z,14.80
2018-09-04T22:07:49.129Z,14.80
2018-09-04T22:10:17.363Z,14.80
2018-09-04T22:12:45.603Z,14.80
2018-09-04T22:15:13.848Z,14.70
2018-09-04T22:17:42.092Z,14.70
2018-09-04T22:20:10.342Z,14.60
2018-09-04T22:22:38.598Z,14.50
2018-09-04T22:25:06.849Z,14.60
2018-09-04T22:27:35.204Z,14.50
2018-09-04T22:30:03.463Z,14.50
2018-09-04T22:32:31.724Z,14.50
2018-09-04T22:35:00.066Z,14.50
2018-09-04T22:37:28.350Z,14.50
2018-09-04T22:39:56.585Z,14.50
2018-09-04T22:42:24.843Z,14.40
2018-09-04T22:44:53.090Z,14.40
2018-09-04T22:47:21.335Z,14.40
2018-09-04T22:49:55.077Z,14.40
2018-09-04T22:52:29.489Z,14.30
2018-09-04T22:55:00.462Z,14.20
2018-09-04T22:57:28.754Z,14.20
2018-09-04T22:59:57.008Z,14.20
2018-09-04T23:02:25.259Z,14.20
2018-09-04T23:04:53.546Z,14.20
2018-09-04T23:07:21.803Z,14.20
2018-09-04T23:09:50.061Z,14.20
2018-09-04T23:12:18.328Z,14.10
2018-09-04T23:14:46.844Z,14.10
2018-09-04T23:17:15.325Z,14.10
2018-09-04T23:19:43.559Z,14.10
2018-09-04T23:22:11.796Z,14.00
2018-09-04T23:24:40.039Z,14.00
2018-09-04T23:27:08.409Z,14.00
2018-09-04T23:29:37.320Z,14.00
2018-09-04T23:32:05.583Z,13.90
2018-09-04T23:34:33.843Z,14.00
2018-09-04T23:37:02.082Z,14.00
2018-09-04T23:39:30.343Z,14.00
2018-09-04T23:41:58.589Z,13.90
2018-09-04T23:44:26.875Z,13.90
2018-09-04T23:46:55.161Z,13.80
2018-09-04T23:49:23.460Z,13.80
2018-09-04T23:51:51.751Z,13.80
2018-09-04T23:54:20.059Z,13.70
2018-09-04T23:56:48.506Z,13.60
2018-09-04T23:59:16.879Z,13.50
